Newark, OH (43056)

4:51 AM EST on December 28, 2014 (GMT -0500)
APRSWXNET Newark OH US | Change Station
CLOSE
Current Station
Personal Weather Station
Location: Jacksontown, OH
Elevation: 984 ft
Nearby Weather Stations

Elev 984 ft 39.98 °N, 82.42 °W | Updated 57 minutes ago

Rain
Rain
42 °F
Feels Like 38 °F
N
7
Wind Variable Wind from NW
Gusts 17.0 mph

Today
High -- | Low -- °F
--% Chance of Precip.
Yesterday
High -- | Low -- °F
Precip. -- in
7:50 AM 5:11 PM
Waxing Crescent, 46% visible
Pressure 30.00 in
Visibility 10.0 miles
Clouds Scattered Clouds 900 ft
Overcast 1500 ft
Windchill 38 °F
Dew Point 40 °F
Humidity 94%
Rainfall 0.43 in
Snow Depth Not available.
UV 0 out of 12
Pollen .10 out of 12
Air Quality Not available.
Flu Activity Not available.
SPECI KVTA 280907Z AUTO 31010G19KT 10SM -RA SCT009 OVC015 05/03 A3000 RMK AO2 P0000 T00500028

More Conditions Fewer Conditions

Pressure 30.00 in
Visibility 10.0 miles
Clouds Scattered Clouds 900 ft
Overcast 1500 ft
Windchill 38 °F
Dew Point 40 °F
Humidity 94%
Rainfall 0.43 in
Snow Depth Not available.
UV 0 out of 12
Pollen .10 out of 12
Air Quality Not available.
Flu Activity Not available.
SPECI KVTA 280907Z AUTO 31010G19KT 10SM -RA SCT009 OVC015 05/03 A3000 RMK AO2 P0000 T00500028

More Conditions Fewer Conditions

10-Day Weather Forecast

Almanac

Astronomy

Dec. 28, 2014 Rise Set
Actual Time
Civil Twilight
Nautical Twilight
Astronomical Twilight
Moon
Length of Visible Light
Length of Day
Tomorrow will be .
, % of the Moon is Illuminated

Today's Extremes

State Highs State Lows

Community

WunderPhotos

Upload Photos

1,781,207 photos uploaded!

WunderBlogs® & News

Nearby

Air Quality

  Air Quality AQ Index Pollutant
Not available.

Snow Depth

Station Depth Elevation

Earthquake Activity

City Distance Mag. Time & Date
Minimum magnitude displayed is 2.5.

Coastal Water Temperatures

Place Temperature

Nearby Weather Stations